Terminal Aerodrome Forecast
Issued by NWS Omaha/Valley, NE

Home | Current Version | Previous Version | Text Only | Print | Product List | Glossary Off
Versions: 1 2 3 4 5 6 7 8 9 10 11 12 13 14 15 16 17 18 19 20 21 22 23 24 25 26 27 28 29 30 31 32 33 34 35 36

671
FTUS43 KOAX 170205 AAB
TAFOFK
TAF AMD
KOFK 170205Z 1702/1724 34015G19KT P6SM OVC016
     FM170600 32013KT P6SM BKN040
     FM170900 31008KT P6SM SCT250=

USA.gov is the U.S. government's official web portal to all federal, state and local government web resources and services.